createdAt,value
2019-05-03T00:01:42.040Z,8.20
2019-05-03T00:04:47.001Z,8.10
2019-05-03T00:07:52.642Z,8.10
2019-05-03T00:10:55.879Z,8.10
2019-05-03T00:13:58.797Z,8.10
2019-05-03T00:17:02.325Z,8.10
2019-05-03T00:20:05.469Z,8.10
2019-05-03T00:23:08.282Z,8.10
2019-05-03T00:26:11.981Z,8.10
2019-05-03T00:29:15.262Z,8.00
2019-05-03T00:32:18.085Z,8.10
2019-05-03T00:35:42.412Z,8.00
2019-05-03T00:38:45.792Z,8.00
2019-05-03T00:41:49.775Z,8.00
2019-05-03T00:44:52.938Z,7.90
2019-05-03T00:47:55.740Z,7.80
2019-05-03T00:50:58.625Z,7.70
2019-05-03T00:54:02.108Z,7.60
2019-05-03T00:57:05.444Z,7.50
2019-05-03T01:00:08.708Z,7.30
2019-05-03T01:03:12.545Z,7.20
2019-05-03T01:06:15.574Z,7.00
2019-05-03T01:09:22.511Z,6.90
2019-05-03T01:12:25.474Z,6.80
2019-05-03T01:15:38.069Z,6.80
2019-05-03T01:18:41.742Z,6.70
2019-05-03T01:21:44.985Z,6.60
2019-05-03T01:24:48.085Z,6.60
2019-05-03T01:27:52.193Z,6.60
2019-05-03T01:30:55.493Z,6.60
2019-05-03T01:33:58.694Z,6.60
2019-05-03T01:37:02.568Z,6.50
2019-05-03T01:40:06.513Z,6.40
2019-05-03T01:43:11.551Z,6.30
2019-05-03T01:46:14.648Z,6.20
2019-05-03T01:49:27.158Z,6.00
2019-05-03T01:52:33.731Z,5.90
2019-05-03T01:55:52.463Z,5.80
2019-05-03T01:58:57.061Z,5.70
2019-05-03T02:02:07.457Z,5.70
2019-05-03T02:05:39.214Z,5.60
2019-05-03T02:08:42.586Z,5.50
2019-05-03T02:11:45.637Z,5.40
2019-05-03T02:14:48.898Z,5.30
2019-05-03T02:17:52.173Z,5.30
2019-05-03T02:20:55.345Z,5.20
2019-05-03T02:23:58.557Z,5.10
2019-05-03T02:27:02.126Z,4.90
2019-05-03T02:30:05.673Z,4.80
2019-05-03T02:33:08.862Z,4.80
2019-05-03T02:36:13.661Z,4.70
2019-05-03T02:39:19.206Z,4.70
2019-05-03T02:42:22.413Z,4.60
2019-05-03T02:45:27.403Z,4.60
2019-05-03T02:48:50.012Z,4.60
2019-05-03T02:51:55.241Z,4.70
2019-05-03T02:54:58.266Z,4.60
2019-05-03T02:58:01.418Z,4.60
2019-05-03T03:01:06.510Z,4.60
2019-05-03T03:04:10.189Z,4.50
2019-05-03T03:07:15.133Z,4.30
2019-05-03T03:10:19.574Z,4.20
2019-05-03T03:13:25.622Z,4.30
2019-05-03T03:16:32.303Z,4.30
2019-05-03T03:19:37.971Z,4.30
2019-05-03T03:22:45.575Z,4.30
2019-05-03T03:25:50.623Z,4.20
2019-05-03T03:28:57.994Z,4.20
2019-05-03T03:32:17.967Z,4.30
2019-05-03T03:35:22.673Z,4.30
2019-05-03T03:38:26.260Z,4.20
2019-05-03T03:41:31.089Z,4.20
2019-05-03T03:44:36.297Z,4.30
2019-05-03T03:47:39.749Z,4.30
2019-05-03T03:50:45.741Z,4.20
2019-05-03T03:53:52.389Z,4.20
2019-05-03T03:57:03.219Z,4.10
2019-05-03T04:00:00.719Z,4.10
2019-05-03T04:03:05.882Z,4.30
2019-05-03T04:06:08.857Z,4.40
2019-05-03T04:10:00.830Z,4.40
2019-05-03T04:13:05.858Z,4.40
2019-05-03T04:16:30.904Z,4.50
2019-05-03T04:19:36.348Z,4.50
2019-05-03T04:22:39.818Z,4.60
2019-05-03T04:25:45.069Z,4.60
2019-05-03T04:28:48.566Z,4.70
2019-05-03T04:31:51.729Z,4.70
2019-05-03T04:34:55.952Z,4.80
2019-05-03T04:38:00.730Z,4.90
2019-05-03T04:41:05.826Z,4.90
2019-05-03T04:44:09.249Z,4.90
2019-05-03T04:47:12.406Z,5.00
2019-05-03T04:50:16.588Z,5.00
2019-05-03T04:53:19.857Z,5.10
2019-05-03T04:56:25.186Z,5.00
2019-05-03T04:59:28.110Z,4.90
2019-05-03T05:02:31.261Z,5.00
2019-05-03T05:05:36.370Z,5.00
2019-05-03T05:08:39.630Z,5.10
2019-05-03T05:11:45.560Z,5.20
2019-05-03T05:14:47.826Z,5.30
2019-05-03T05:17:59.071Z,5.40
2019-05-03T05:21:30.741Z,5.40
2019-05-03T05:24:34.595Z,5.50
2019-05-03T05:27:58.930Z,5.50
2019-05-03T05:31:02.169Z,5.60
2019-05-03T05:34:06.371Z,5.70
2019-05-03T05:37:10.402Z,5.70
2019-05-03T05:40:15.666Z,5.90
2019-05-03T05:43:19.048Z,5.90
2019-05-03T05:46:24.920Z,6.00
2019-05-03T05:49:50.225Z,6.10
2019-05-03T05:52:55.091Z,6.10
2019-05-03T05:56:15.661Z,6.20
2019-05-03T05:59:36.369Z,6.30
2019-05-03T06:02:39.657Z,6.50
2019-05-03T06:05:44.670Z,6.60
2019-05-03T06:09:05.957Z,6.70
2019-05-03T06:50:29.039Z,8.10
2019-05-03T06:53:34.566Z,8.00
2019-05-03T06:56:41.268Z,8.00
2019-05-03T07:00:02.824Z,7.90
2019-05-03T07:03:44.738Z,8.40
2019-05-03T07:07:26.000Z,9.00
2019-05-03T07:10:35.271Z,9.40
2019-05-03T07:13:38.323Z,9.10
2019-05-03T07:16:44.395Z,8.80
2019-05-03T07:19:47.240Z,9.20
2019-05-03T07:22:51.273Z,10.00
2019-05-03T07:25:56.026Z,10.50
2019-05-03T07:28:58.849Z,10.30
2019-05-03T07:32:05.057Z,10.20
2019-05-03T07:35:07.442Z,10.70
2019-05-03T07:38:10.298Z,10.10
2019-05-03T07:41:15.930Z,10.50
2019-05-03T07:44:19.882Z,10.00
2019-05-03T07:47:24.938Z,10.10
2019-05-03T07:50:32.954Z,10.90
2019-05-03T07:53:35.657Z,11.60
2019-05-03T07:56:45.059Z,12.10
2019-05-03T07:59:48.051Z,12.80
2019-05-03T08:02:52.182Z,12.20
2019-05-03T08:05:55.443Z,12.10
2019-05-03T08:08:59.451Z,13.00
2019-05-03T08:12:05.130Z,12.60
2019-05-03T08:15:11.363Z,11.90
2019-05-03T08:18:15.535Z,12.10
2019-05-03T08:21:38.964Z,11.40
2019-05-03T08:24:44.854Z,11.10
2019-05-03T08:27:48.926Z,11.70
2019-05-03T08:31:23.929Z,12.10
2019-05-03T08:34:56.678Z,11.70
2019-05-03T08:38:01.882Z,12.20
2019-05-03T08:41:07.890Z,12.20
2019-05-03T08:44:14.539Z,11.00
2019-05-03T08:47:18.790Z,12.50
2019-05-03T08:50:25.510Z,13.20
2019-05-03T08:53:30.341Z,11.70
2019-05-03T08:56:34.877Z,10.90
2019-05-03T08:59:40.962Z,12.20
2019-05-03T09:02:46.382Z,12.90
2019-05-03T09:05:50.312Z,13.90
2019-05-03T09:08:57.262Z,15.00
2019-05-03T09:12:04.683Z,15.20
2019-05-03T09:15:09.279Z,14.60
2019-05-03T09:18:16.810Z,14.00
2019-05-03T09:21:18.737Z,13.40
2019-05-03T09:24:21.590Z,12.20
2019-05-03T09:27:27.450Z,12.70
2019-05-03T09:30:33.102Z,13.90
2019-05-03T09:33:39.768Z,14.90
2019-05-03T09:36:44.910Z,15.30
2019-05-03T09:39:50.486Z,14.10
2019-05-03T09:42:56.243Z,12.60
2019-05-03T09:46:02.184Z,13.10
2019-05-03T09:49:13.432Z,12.90
2019-05-03T09:52:16.044Z,13.80
2019-05-03T09:55:25.368Z,13.70
2019-05-03T09:58:29.930Z,12.60
2019-05-03T10:01:34.652Z,12.80
2019-05-03T10:04:41.032Z,13.80
2019-05-03T10:07:45.562Z,14.00
2019-05-03T10:11:15.153Z,13.60
2019-05-03T10:14:19.073Z,12.80
2019-05-03T10:17:51.544Z,12.90
2019-05-03T10:20:56.447Z,12.90
2019-05-03T10:24:00.702Z,12.80
2019-05-03T10:27:05.457Z,13.90
2019-05-03T10:30:13.223Z,14.90
2019-05-03T10:33:23.076Z,15.30
2019-05-03T10:36:27.598Z,14.60
2019-05-03T10:39:31.881Z,14.10
2019-05-03T10:42:35.362Z,13.60
2019-05-03T10:45:40.135Z,13.50
2019-05-03T10:48:45.188Z,13.30
2019-05-03T10:51:54.842Z,12.70
2019-05-03T10:55:00.578Z,12.30
2019-05-03T10:58:12.524Z,12.30
2019-05-03T11:01:17.194Z,12.60
2019-05-03T11:04:20.021Z,13.00
2019-05-03T11:07:25.711Z,13.10
2019-05-03T11:10:32.350Z,13.70
2019-05-03T11:13:36.198Z,14.20
2019-05-03T11:16:41.822Z,14.80
2019-05-03T11:19:47.355Z,16.40
2019-05-03T11:22:51.070Z,16.60
2019-05-03T11:25:55.482Z,16.00
2019-05-03T11:29:00.525Z,16.40
2019-05-03T11:32:11.276Z,16.50
2019-05-03T11:35:20.672Z,15.70
2019-05-03T11:38:28.246Z,15.50
2019-05-03T11:41:32.986Z,15.50
2019-05-03T11:44:38.769Z,15.00
2019-05-03T11:47:45.650Z,15.80
2019-05-03T11:50:51.676Z,15.50
2019-05-03T11:53:55.654Z,13.90
2019-05-03T11:57:01.531Z,13.90
2019-05-03T12:00:07.181Z,15.10
2019-05-03T12:03:18.258Z,15.90
2019-05-03T12:06:24.795Z,16.70
2019-05-03T12:09:28.547Z,15.10
2019-05-03T12:12:35.340Z,15.40
2019-05-03T12:15:41.342Z,15.40
2019-05-03T12:18:52.524Z,16.20
2019-05-03T12:21:53.554Z,15.70
2019-05-03T12:25:00.427Z,15.60
2019-05-03T12:28:05.910Z,15.60
2019-05-03T12:31:25.927Z,15.40
2019-05-03T12:34:18.629Z,14.70
2019-05-03T12:37:24.501Z,14.50
2019-05-03T12:40:27.538Z,14.40
2019-05-03T12:43:30.273Z,16.10
2019-05-03T12:46:37.058Z,15.90
2019-05-03T12:49:41.135Z,14.30
2019-05-03T12:52:50.287Z,14.70
2019-05-03T12:55:54.374Z,14.90
2019-05-03T12:59:09.531Z,14.90
2019-05-03T13:02:26.185Z,14.80
2019-05-03T13:05:31.835Z,14.60
2019-05-03T13:08:39.445Z,13.90
2019-05-03T13:11:53.003Z,13.30
2019-05-03T13:14:48.623Z,13.20
2019-05-03T13:17:52.758Z,13.60
2019-05-03T13:20:55.931Z,13.70
2019-05-03T13:24:01.573Z,13.90
2019-05-03T13:27:05.548Z,12.80
2019-05-03T13:30:09.553Z,12.60
2019-05-03T13:33:15.127Z,12.30
2019-05-03T13:36:20.891Z,12.00
2019-05-03T13:39:26.347Z,12.20
2019-05-03T13:42:28.434Z,11.80
2019-05-03T13:45:32.690Z,12.20
2019-05-03T13:48:45.423Z,13.20
2019-05-03T13:51:45.153Z,13.80
2019-05-03T13:54:48.114Z,15.20
2019-05-03T13:57:50.948Z,16.70
2019-05-03T14:00:54.969Z,16.30
2019-05-03T14:03:57.999Z,15.70
2019-05-03T14:07:04.504Z,15.00
2019-05-03T14:10:09.687Z,15.30
2019-05-03T14:13:13.513Z,15.60
2019-05-03T14:16:20.275Z,15.70
2019-05-03T14:19:34.664Z,14.10
2019-05-03T14:22:40.615Z,15.30
2019-05-03T14:25:45.357Z,15.50
2019-05-03T14:28:48.514Z,14.50
2019-05-03T14:31:54.567Z,14.00
2019-05-03T14:35:00.562Z,13.10
2019-05-03T14:38:05.753Z,12.80
2019-05-03T14:41:08.118Z,12.80
2019-05-03T14:44:14.875Z,12.60
2019-05-03T14:47:17.570Z,12.30
2019-05-03T14:50:20.326Z,12.10
2019-05-03T14:53:25.282Z,12.40
2019-05-03T14:56:56.083Z,12.60
2019-05-03T15:00:17.507Z,12.60
2019-05-03T15:03:24.703Z,12.20
2019-05-03T15:06:31.539Z,12.20
2019-05-03T15:09:35.500Z,12.20
2019-05-03T15:12:40.186Z,12.60
2019-05-03T15:15:45.118Z,12.80
2019-05-03T15:18:49.271Z,13.20
2019-05-03T15:21:54.915Z,13.20
2019-05-03T15:24:59.134Z,13.20
2019-05-03T15:28:02.023Z,12.70
2019-05-03T15:31:05.261Z,12.30
2019-05-03T15:34:09.894Z,12.50
2019-05-03T15:37:14.689Z,12.20
2019-05-03T15:40:19.230Z,12.40
2019-05-03T15:43:34.637Z,12.10
2019-05-03T15:47:00.198Z,12.10
2019-05-03T15:50:06.142Z,11.90
2019-05-03T15:53:09.054Z,11.60
2019-05-03T15:56:11.778Z,11.30
2019-05-03T15:59:17.422Z,11.20
2019-05-03T16:02:20.215Z,11.00
2019-05-03T16:05:25.107Z,10.90
2019-05-03T16:08:28.010Z,11.00
2019-05-03T16:11:34.476Z,10.80
2019-05-03T16:14:39.987Z,10.90
2019-05-03T16:17:42.741Z,10.70
2019-05-03T16:20:46.878Z,10.60
2019-05-03T16:23:49.625Z,10.70
2019-05-03T16:27:14.293Z,10.60
2019-05-03T16:30:28.544Z,10.40
2019-05-03T16:33:31.430Z,10.30
2019-05-03T16:36:34.643Z,10.30
2019-05-03T16:39:38.938Z,10.20
2019-05-03T16:42:44.872Z,10.20
2019-05-03T16:45:47.779Z,10.10
2019-05-03T16:48:51.634Z,10.10
2019-05-03T16:51:56.250Z,10.20
2019-05-03T16:54:59.102Z,10.20
2019-05-03T16:58:01.851Z,10.30
2019-05-03T17:01:05.827Z,10.10
2019-05-03T17:04:45.179Z,9.90
2019-05-03T17:08:06.170Z,10.00
2019-05-03T17:11:12.214Z,9.80
2019-05-03T17:14:16.174Z,9.70
2019-05-03T17:17:19.046Z,9.70
2019-05-03T17:20:23.561Z,9.70
2019-05-03T17:23:28.947Z,9.50
2019-05-03T17:26:32.362Z,9.40
2019-05-03T17:29:38.081Z,9.50
2019-05-03T17:32:44.696Z,9.30
2019-05-03T17:35:50.341Z,9.20
2019-05-03T17:38:55.186Z,9.20
2019-05-03T17:42:11.578Z,9.00
2019-05-03T17:45:18.197Z,9.00
2019-05-03T17:48:22.079Z,8.90
2019-05-03T17:51:42.906Z,8.90
2019-05-03T17:55:05.260Z,8.80
2019-05-03T17:58:15.163Z,8.70
2019-05-03T18:01:35.879Z,8.70
2019-05-03T18:04:59.526Z,8.60
2019-05-03T18:08:21.582Z,8.50
2019-05-03T18:11:31.547Z,8.40
2019-05-03T18:14:34.563Z,8.30
2019-05-03T18:17:38.626Z,8.30
2019-05-03T18:20:45.022Z,8.20
2019-05-03T18:23:49.103Z,8.30
2019-05-03T18:26:51.835Z,8.30
2019-05-03T18:29:55.408Z,8.20
2019-05-03T18:33:00.741Z,8.20
2019-05-03T18:36:05.769Z,8.10
2019-05-03T18:39:09.189Z,8.10
2019-05-03T18:42:18.745Z,8.10
2019-05-03T18:45:36.391Z,8.10
2019-05-03T18:48:40.525Z,8.00
2019-05-03T18:51:44.706Z,8.00
2019-05-03T18:54:50.555Z,8.10
2019-05-03T18:57:54.732Z,8.10
2019-05-03T19:01:00.586Z,8.10
2019-05-03T19:04:31.447Z,8.10
2019-05-03T19:07:50.451Z,8.20
2019-05-03T19:10:57.097Z,8.20
2019-05-03T19:14:04.798Z,8.20
2019-05-03T19:17:25.883Z,8.20
2019-05-03T19:20:28.737Z,8.00
2019-05-03T19:23:31.607Z,7.90
2019-05-03T19:26:35.269Z,7.80
2019-05-03T19:29:38.271Z,7.70
2019-05-03T19:32:41.435Z,7.50
2019-05-03T19:35:44.486Z,7.40
2019-05-03T19:38:47.755Z,7.40
2019-05-03T19:41:50.553Z,7.50
2019-05-03T19:44:55.113Z,7.60
2019-05-03T19:47:57.826Z,7.70
2019-05-03T19:51:00.606Z,7.70
2019-05-03T19:54:05.286Z,7.70
2019-05-03T19:57:08.354Z,7.70
2019-05-03T20:00:11.467Z,7.80
2019-05-03T20:03:17.858Z,7.80
2019-05-03T20:06:34.534Z,7.80
2019-05-03T20:09:37.402Z,7.80
2019-05-03T20:12:40.264Z,7.80
2019-05-03T20:15:45.067Z,7.80
2019-05-03T20:18:47.955Z,7.80
2019-05-03T20:21:50.731Z,7.80
2019-05-03T20:24:55.259Z,7.70
2019-05-03T20:27:58.131Z,7.70
2019-05-03T20:31:00.902Z,7.60
2019-05-03T20:34:05.392Z,7.60
2019-05-03T20:37:08.416Z,7.50
2019-05-03T20:40:11.335Z,7.50
2019-05-03T20:43:39.301Z,7.50
2019-05-03T20:47:04.278Z,7.50
2019-05-03T20:50:16.945Z,7.50
2019-05-03T20:53:20.018Z,7.40
2019-05-03T20:56:24.900Z,7.40
2019-05-03T20:59:28.045Z,7.40
2019-05-03T21:02:30.875Z,7.30
2019-05-03T21:05:36.805Z,7.20
2019-05-03T21:08:49.835Z,7.20
2019-05-03T21:11:44.592Z,7.20
2019-05-03T21:14:47.550Z,7.10
2019-05-03T21:18:15.093Z,7.10
2019-05-03T21:21:24.743Z,7.10
2019-05-03T21:24:51.255Z,7.00
2019-05-03T21:27:55.509Z,7.00
2019-05-03T21:30:58.402Z,7.00
2019-05-03T21:34:01.186Z,7.00
2019-05-03T21:37:03.993Z,6.80
2019-05-03T21:40:06.906Z,6.80
2019-05-03T21:43:09.716Z,6.80
2019-05-03T21:46:34.720Z,6.80
2019-05-03T21:49:40.900Z,6.80
2019-05-03T21:52:45.664Z,6.70
2019-05-03T21:55:48.743Z,6.80
2019-05-03T21:58:51.658Z,6.70
2019-05-03T22:01:54.729Z,6.60
2019-05-03T22:04:57.634Z,6.50
2019-05-03T22:08:00.498Z,6.40
2019-05-03T22:11:05.252Z,6.40
2019-05-03T22:14:12.890Z,6.30
2019-05-03T22:17:34.546Z,6.30
2019-05-03T22:20:56.949Z,6.20
2019-05-03T22:24:06.888Z,6.20
2019-05-03T22:27:15.659Z,6.10
2019-05-03T22:30:18.478Z,6.20
2019-05-03T22:33:21.202Z,6.20
2019-05-03T22:36:24.555Z,6.30
2019-05-03T22:39:27.343Z,6.20
2019-05-03T22:42:30.067Z,6.20
2019-05-03T22:45:35.210Z,6.20
2019-05-03T22:48:39.858Z,6.20
2019-05-03T22:51:46.875Z,6.20
2019-05-03T22:54:50.191Z,6.20
2019-05-03T22:57:54.592Z,6.20
2019-05-03T23:00:58.521Z,6.20
2019-05-03T23:04:01.846Z,6.20
2019-05-03T23:07:05.774Z,6.10
2019-05-03T23:10:08.690Z,6.20
2019-05-03T23:13:11.511Z,6.20
2019-05-03T23:16:14.442Z,6.00
2019-05-03T23:19:17.234Z,5.90
2019-05-03T23:22:26.207Z,5.80
2019-05-03T23:25:30.728Z,5.70
2019-05-03T23:28:35.520Z,5.70
2019-05-03T23:31:38.259Z,5.80
2019-05-03T23:34:40.982Z,5.70
2019-05-03T23:37:44.984Z,5.80
2019-05-03T23:40:47.750Z,5.70
2019-05-03T23:43:50.554Z,5.70
2019-05-03T23:47:14.454Z,5.70
2019-05-03T23:50:19.327Z,5.70
2019-05-03T23:53:22.086Z,5.60
2019-05-03T23:56:24.822Z,5.60
2019-05-03T23:59:27.574Z,5.50
